createdAt,value
2022-10-21T00:00:26.724Z,97953.56
2022-10-21T00:03:29.513Z,97967.16
2022-10-21T00:06:32.133Z,97971.31
2022-10-21T00:09:36.102Z,97975.81
2022-10-21T00:12:39.462Z,97981.59
2022-10-21T00:15:42.409Z,97975.50
2022-10-21T00:18:46.297Z,97963.63
2022-10-21T00:21:49.315Z,97969.03
2022-10-21T00:24:53.510Z,97967.91
2022-10-21T00:28:00.757Z,97985.69
2022-10-21T00:31:03.783Z,97980.50
2022-10-21T00:34:06.448Z,97978.63
2022-10-21T00:37:09.071Z,97983.72
2022-10-21T00:40:13.160Z,97980.88
2022-10-21T00:43:15.926Z,97976.09
2022-10-21T00:46:18.665Z,97967.81
2022-10-21T00:49:26.216Z,97969.59
2022-10-21T00:52:32.898Z,97971.28
2022-10-21T00:55:40.659Z,97965.09
2022-10-21T00:58:43.362Z,97959.53
2022-10-21T01:01:46.125Z,97958.41
2022-10-21T01:04:53.122Z,97955.22
2022-10-21T01:07:55.970Z,97953.91
2022-10-21T01:11:02.152Z,97955.00
2022-10-21T01:14:20.797Z,97962.28
2022-10-21T01:17:44.949Z,97955.31
2022-10-21T01:21:08.203Z,97952.91
2022-10-21T01:24:30.708Z,97956.19
2022-10-21T01:27:51.457Z,97945.91
2022-10-21T01:30:58.264Z,97949.13
2022-10-21T01:34:09.496Z,97950.44
2022-10-21T01:37:21.739Z,97959.59
2022-10-21T01:40:32.404Z,97944.81
2022-10-21T01:43:42.376Z,97923.38
2022-10-21T01:46:50.067Z,97918.88
2022-10-21T01:49:57.286Z,97916.78
2022-10-21T01:53:04.317Z,97926.94
2022-10-21T01:56:10.048Z,97927.19
2022-10-21T01:59:14.552Z,97925.75
2022-10-21T02:02:20.741Z,97921.88
2022-10-21T02:05:26.850Z,97917.00
2022-10-21T02:08:32.122Z,97918.81
2022-10-21T02:11:38.479Z,97907.44
2022-10-21T02:14:45.008Z,97905.06
2022-10-21T02:17:52.955Z,97901.25
2022-10-21T02:20:58.128Z,97879.59
2022-10-21T02:24:06.142Z,97873.03
2022-10-21T02:27:09.036Z,97864.00
2022-10-21T02:30:12.005Z,97853.44
2022-10-21T02:33:24.820Z,97862.41
2022-10-21T02:36:37.664Z,97854.50
2022-10-21T02:39:47.565Z,97846.41
2022-10-21T02:42:55.739Z,97825.66
2022-10-21T02:46:02.585Z,97815.69
2022-10-21T02:49:06.965Z,97825.22
2022-10-21T02:52:09.574Z,97825.44
2022-10-21T02:55:12.187Z,97817.53
2022-10-21T02:58:14.797Z,97808.03
2022-10-21T03:01:17.615Z,97793.44
2022-10-21T03:04:22.658Z,97771.88
2022-10-21T03:07:25.326Z,97789.63
2022-10-21T03:10:27.946Z,97807.09
2022-10-21T03:13:30.586Z,97791.09
2022-10-21T03:16:33.205Z,97779.22
2022-10-21T03:19:37.562Z,97768.34
2022-10-21T03:22:40.357Z,97765.63
2022-10-21T03:25:43.106Z,97765.53
2022-10-21T03:28:45.702Z,97776.50
2022-10-21T03:31:48.298Z,97770.38
2022-10-21T03:34:52.336Z,97762.28
2022-10-21T03:37:55.305Z,97763.84
2022-10-21T03:40:58.357Z,97766.06
2022-10-21T03:44:00.955Z,97771.94
2022-10-21T03:47:03.633Z,97761.63
2022-10-21T03:50:11.945Z,97761.63
2022-10-21T03:53:30.986Z,97755.44
2022-10-21T03:56:39.332Z,97763.25
2022-10-21T03:59:41.961Z,97752.47
2022-10-21T04:02:44.849Z,97761.81
2022-10-21T04:05:49.478Z,97753.59
2022-10-21T04:08:52.172Z,97746.59
2022-10-21T04:11:54.897Z,97743.78
2022-10-21T04:14:57.524Z,97747.25
2022-10-21T04:18:00.166Z,97735.22
2022-10-21T04:21:04.405Z,97736.78
2022-10-21T04:24:07.050Z,97727.09
2022-10-21T04:27:09.726Z,97721.88
2022-10-21T04:30:12.472Z,97715.38
2022-10-21T04:33:15.129Z,97721.72
2022-10-21T04:36:19.283Z,97722.41
2022-10-21T04:39:22.367Z,97716.72
2022-10-21T04:42:25.291Z,97713.22
2022-10-21T04:45:27.960Z,97703.97
2022-10-21T04:48:30.721Z,97717.78
2022-10-21T04:51:34.689Z,97712.72
2022-10-21T04:54:37.308Z,97713.03
2022-10-21T04:57:41.221Z,97706.03
2022-10-21T05:00:44.343Z,97704.63
2022-10-21T05:03:47.114Z,97697.63
2022-10-21T05:06:51.167Z,97715.72
2022-10-21T05:09:53.762Z,97712.53
2022-10-21T05:12:56.407Z,97714.13
2022-10-21T05:16:00.115Z,97712.22
2022-10-21T05:19:02.740Z,97713.53
2022-10-21T05:22:06.735Z,97708.41
2022-10-21T05:25:10.335Z,97714.50
2022-10-21T05:28:13.201Z,97703.09
2022-10-21T05:31:15.829Z,97703.63
2022-10-21T05:34:18.697Z,97700.81
2022-10-21T05:37:22.734Z,97702.41
2022-10-21T05:40:25.377Z,97700.88
2022-10-21T05:43:28.890Z,97702.94
2022-10-21T05:46:31.506Z,97695.97
2022-10-21T05:49:34.533Z,97694.06
2022-10-21T05:52:39.002Z,97700.91
2022-10-21T05:55:41.756Z,97685.31
2022-10-21T05:58:44.398Z,97685.59
2022-10-21T06:01:47.418Z,97678.44
2022-10-21T06:04:50.027Z,97679.44
2022-10-21T06:07:54.017Z,97667.94
2022-10-21T06:11:03.438Z,97667.31
2022-10-21T06:14:06.077Z,97660.31
2022-10-21T06:17:08.726Z,97664.94
2022-10-21T06:20:11.657Z,97674.00
2022-10-21T06:23:16.312Z,97690.09
2022-10-21T06:26:18.947Z,97705.34
2022-10-21T06:29:21.570Z,97703.75
2022-10-21T06:32:24.211Z,97713.31
2022-10-21T06:35:27.330Z,97720.47
2022-10-21T06:38:32.232Z,97703.13
2022-10-21T06:41:34.949Z,97720.31
2022-10-21T06:44:37.591Z,97730.16
2022-10-21T06:47:40.674Z,97732.84
2022-10-21T06:50:43.685Z,97736.19
2022-10-21T06:53:49.136Z,97728.88
2022-10-21T06:56:51.802Z,97747.31
2022-10-21T06:59:54.422Z,97766.88
2022-10-21T07:02:57.349Z,97772.09
2022-10-21T07:06:00.628Z,97768.63
2022-10-21T07:09:05.101Z,97752.69
2022-10-21T07:12:08.180Z,97744.91
2022-10-21T07:15:11.709Z,97753.81
2022-10-21T07:18:14.333Z,97741.88
2022-10-21T07:21:19.534Z,97748.91
2022-10-21T07:24:23.568Z,97723.78
2022-10-21T07:27:26.614Z,97687.38
2022-10-21T07:30:29.222Z,97698.50
2022-10-21T07:33:32.571Z,97732.38
2022-10-21T07:36:38.347Z,97743.19
2022-10-21T07:39:42.409Z,97742.38
2022-10-21T07:42:45.086Z,97750.50
2022-10-21T07:45:47.785Z,97761.31
2022-10-21T07:48:51.150Z,97751.59
2022-10-21T07:51:54.255Z,97743.47
2022-10-21T07:54:58.347Z,97739.69
2022-10-21T07:58:01.121Z,97744.94
2022-10-21T08:01:07.069Z,97757.97
2022-10-21T08:04:11.474Z,97767.69
2022-10-21T08:07:14.133Z,97758.59
2022-10-21T08:10:18.376Z,97738.06
2022-10-21T08:13:21.562Z,97740.31
2022-10-21T08:16:25.041Z,97733.97
2022-10-21T08:19:29.684Z,97742.88
2022-10-21T08:22:32.425Z,97756.88
2022-10-21T08:25:36.590Z,97772.44
2022-10-21T08:28:39.285Z,97765.28
2022-10-21T08:31:41.937Z,97755.59
2022-10-21T08:34:44.937Z,97748.28
2022-10-21T08:37:49.813Z,97735.56
2022-10-21T08:40:55.712Z,97724.13
2022-10-21T08:44:03.746Z,97730.16
2022-10-21T08:47:15.317Z,97728.25
2022-10-21T08:50:21.576Z,97757.19
2022-10-21T08:53:28.869Z,97735.88
2022-10-21T08:56:33.445Z,97771.34
2022-10-21T08:59:36.048Z,97799.94
2022-10-21T09:02:59.087Z,97741.59
2022-10-21T09:06:18.483Z,97772.16
2022-10-21T09:09:29.490Z,97802.81
2022-10-21T09:12:40.358Z,97766.09
2022-10-21T09:15:54.951Z,97806.66
2022-10-21T09:19:10.920Z,97802.03
2022-10-21T09:22:35.966Z,97821.94
2022-10-21T09:25:46.881Z,97809.84
2022-10-21T09:28:54.924Z,97799.03
2022-10-21T09:32:04.035Z,97811.78
2022-10-21T09:35:15.268Z,97817.66
2022-10-21T09:38:21.823Z,97815.75
2022-10-21T09:41:27.413Z,97820.84
2022-10-21T09:44:31.451Z,97832.47
2022-10-21T09:47:34.053Z,97825.31
2022-10-21T09:50:38.573Z,97843.47
2022-10-21T09:53:53.700Z,97862.72
2022-10-21T09:57:02.800Z,97849.66
2022-10-21T10:00:11.176Z,97842.66
2022-10-21T10:03:31.888Z,97845.38
2022-10-21T10:06:37.133Z,97842.50
2022-10-21T10:09:46.684Z,97840.44
2022-10-21T10:12:56.927Z,97849.69
2022-10-21T10:16:16.051Z,97850.16
2022-10-21T10:19:21.321Z,97847.47
2022-10-21T10:22:24.807Z,97847.16
2022-10-21T10:25:32.337Z,97849.88
2022-10-21T10:28:35.172Z,97855.75
2022-10-21T10:31:39.894Z,97849.22
2022-10-21T10:34:53.134Z,97847.63
2022-10-21T10:37:58.406Z,97846.03
2022-10-21T10:41:06.350Z,97852.22
2022-10-21T10:44:13.012Z,97855.75
2022-10-21T10:47:25.409Z,97859.69
2022-10-21T10:50:46.777Z,97861.31
2022-10-21T10:54:01.216Z,97866.38
2022-10-21T10:57:07.710Z,97854.28
2022-10-21T11:00:18.378Z,97854.75
2022-10-21T11:03:28.857Z,97843.75
2022-10-21T11:06:37.604Z,97845.00
2022-10-21T11:09:40.805Z,97841.50
2022-10-21T11:12:43.418Z,97844.81
2022-10-21T11:15:58.900Z,97843.19
2022-10-21T11:19:09.318Z,97849.91
2022-10-21T11:22:16.378Z,97858.63
2022-10-21T11:25:23.910Z,97862.56
2022-10-21T11:28:30.077Z,97853.47
2022-10-21T11:32:09.766Z,97867.00
2022-10-21T11:35:33.169Z,97863.31
2022-10-21T11:38:51.642Z,97870.50
2022-10-21T11:42:01.228Z,97869.16
2022-10-21T11:45:30.523Z,97856.53
2022-10-21T11:48:57.361Z,97864.38
2022-10-21T11:52:11.069Z,97854.88
2022-10-21T11:55:38.593Z,97860.97
2022-10-21T11:58:52.746Z,97853.66
2022-10-21T12:02:01.701Z,97848.88
2022-10-21T12:05:12.955Z,97843.91
2022-10-21T12:08:21.592Z,97859.84
2022-10-21T12:11:28.895Z,97850.00
2022-10-21T12:14:35.626Z,97850.03
2022-10-21T12:17:38.458Z,97852.13
2022-10-21T12:20:41.565Z,97854.22
2022-10-21T12:23:48.477Z,97856.28
2022-10-21T12:26:57.849Z,97860.47
2022-10-21T12:30:08.455Z,97857.09
2022-10-21T12:33:18.949Z,97859.66
2022-10-21T12:36:40.754Z,97853.78
2022-10-21T12:39:52.386Z,97852.16
2022-10-21T12:43:00.088Z,97856.19
2022-10-21T12:46:05.665Z,97851.84
2022-10-21T12:49:20.603Z,97848.19
2022-10-21T12:52:24.729Z,97847.59
2022-10-21T12:55:29.097Z,97852.72
2022-10-21T12:58:37.577Z,97844.28
2022-10-21T13:01:45.041Z,97848.88
2022-10-21T13:04:50.098Z,97842.66
2022-10-21T13:08:27.186Z,97839.47
2022-10-21T13:11:40.887Z,97834.22
2022-10-21T13:14:46.274Z,97835.47
2022-10-21T13:17:52.271Z,97831.66
2022-10-21T13:21:00.284Z,97835.31
2022-10-21T13:24:26.193Z,97824.13
2022-10-21T13:27:32.132Z,97830.03
2022-10-21T13:30:37.248Z,97830.50
2022-10-21T13:33:40.961Z,97828.13
2022-10-21T13:36:43.946Z,97818.06
2022-10-21T13:39:52.695Z,97809.78
2022-10-21T13:42:59.658Z,97811.25
2022-10-21T13:46:07.715Z,97822.59
2022-10-21T13:49:26.998Z,97809.22
2022-10-21T13:52:29.859Z,97808.09
2022-10-21T13:55:32.479Z,97810.13
2022-10-21T13:58:39.978Z,97814.94
2022-10-21T14:01:47.126Z,97809.22
2022-10-21T14:04:49.949Z,97809.66
2022-10-21T14:07:52.621Z,97807.75
2022-10-21T14:10:59.820Z,97810.31
2022-10-21T14:14:08.113Z,97808.84
2022-10-21T14:17:18.211Z,97807.25
2022-10-21T14:20:26.289Z,97795.00
2022-10-21T14:23:30.626Z,97781.13
2022-10-21T14:26:34.253Z,97793.38
2022-10-21T14:29:38.566Z,97795.63
2022-10-21T14:32:41.809Z,97783.97
2022-10-21T14:35:44.697Z,97806.66
2022-10-21T14:38:54.755Z,97805.53
2022-10-21T14:42:03.901Z,97797.38
2022-10-21T14:45:16.076Z,97799.16
2022-10-21T14:48:26.002Z,97792.63
2022-10-21T14:51:30.455Z,97800.16
2022-10-21T14:54:41.619Z,97816.09
2022-10-21T14:57:47.498Z,97799.63
2022-10-21T15:00:57.025Z,97790.56
2022-10-21T15:04:01.663Z,97813.22
2022-10-21T15:07:04.326Z,97805.41
2022-10-21T15:10:19.488Z,97802.88
2022-10-21T15:13:22.549Z,97795.69
2022-10-21T15:16:30.498Z,97796.66
2022-10-21T15:19:45.571Z,97798.91
2022-10-21T15:22:49.593Z,97789.81
2022-10-21T15:25:55.038Z,97791.38
2022-10-21T15:28:58.053Z,97788.78
2022-10-21T15:32:02.584Z,97780.38
2022-10-21T15:35:13.529Z,97789.00
2022-10-21T15:38:16.118Z,97796.97
2022-10-21T15:41:20.977Z,97792.72
2022-10-21T15:44:26.495Z,97798.13
2022-10-21T15:47:30.764Z,97793.00
2022-10-21T15:50:36.515Z,97787.13
2022-10-21T15:53:41.050Z,97786.50
2022-10-21T15:56:49.668Z,97771.38
2022-10-21T15:59:52.640Z,97777.63
2022-10-21T16:02:57.402Z,97768.56
2022-10-21T16:06:00.013Z,97775.25
2022-10-21T16:09:02.691Z,97790.22
2022-10-21T16:12:07.104Z,97788.34
2022-10-21T16:15:10.723Z,97792.47
2022-10-21T16:18:16.884Z,97798.53
2022-10-21T16:21:21.855Z,97788.66
2022-10-21T16:24:24.499Z,97790.91
2022-10-21T16:27:43.388Z,97806.19
2022-10-21T16:30:49.708Z,97803.31
2022-10-21T16:33:54.052Z,97803.63
2022-10-21T16:36:56.914Z,97807.00
2022-10-21T16:39:59.976Z,97799.97
2022-10-21T16:43:02.634Z,97788.84
2022-10-21T16:46:05.379Z,97798.41
2022-10-21T16:49:13.581Z,97794.25
2022-10-21T16:52:17.370Z,97804.94
2022-10-21T16:55:20.330Z,97804.28
2022-10-21T16:58:22.986Z,97811.78
2022-10-21T17:01:26.321Z,97810.66
2022-10-21T17:04:30.355Z,97806.38
2022-10-21T17:07:34.050Z,97801.09
2022-10-21T17:10:36.769Z,97799.38
2022-10-21T17:13:39.409Z,97800.81
2022-10-21T17:16:42.194Z,97797.78
2022-10-21T17:19:46.171Z,97796.03
2022-10-21T17:22:48.859Z,97799.06
2022-10-21T17:25:51.604Z,97795.06
2022-10-21T17:28:55.509Z,97812.59
2022-10-21T17:31:58.117Z,97810.69
2022-10-21T17:35:02.126Z,97807.97
2022-10-21T17:38:05.165Z,97813.41
2022-10-21T17:41:07.818Z,97811.50
2022-10-21T17:44:12.182Z,97810.22
2022-10-21T17:47:14.864Z,97804.31
2022-10-21T17:50:23.401Z,97801.91
2022-10-21T17:53:27.051Z,97797.97
2022-10-21T17:56:29.758Z,97801.59
2022-10-21T17:59:33.456Z,97800.78
2022-10-21T18:02:36.473Z,97801.59
2022-10-21T18:05:42.907Z,97802.38
2022-10-21T18:08:45.790Z,97798.06
2022-10-21T18:11:48.586Z,97807.19
2022-10-21T18:14:52.303Z,97794.88
2022-10-21T18:17:55.330Z,97794.75
2022-10-21T18:21:02.647Z,97778.50
2022-10-21T18:24:09.869Z,97772.63
2022-10-21T18:27:15.023Z,97772.47
2022-10-21T18:30:17.883Z,97768.66
2022-10-21T18:33:23.243Z,97769.75
2022-10-21T18:36:28.450Z,97764.19
2022-10-21T18:39:39.897Z,97761.66
2022-10-21T18:45:59.982Z,97774.06
2022-10-21T18:49:03.799Z,97761.97
2022-10-21T18:52:13.186Z,97765.63
2022-10-21T18:55:15.930Z,97768.03
2022-10-21T18:58:35.702Z,97761.66
2022-10-21T19:02:00.778Z,97765.34
2022-10-21T19:05:03.434Z,97760.69
2022-10-21T19:08:07.537Z,97764.50
2022-10-21T19:39:38.707Z,97766.41
2022-10-21T19:42:52.485Z,97777.56
2022-10-21T19:45:55.279Z,97769.94
2022-10-21T19:49:02.251Z,97780.09
2022-10-21T19:52:05.154Z,97773.09
2022-10-21T19:55:09.812Z,97770.88
2022-10-21T19:58:20.517Z,97767.38
2022-10-21T20:01:26.292Z,97765.63
2022-10-21T20:04:31.353Z,97772.16
2022-10-21T20:07:37.410Z,97779.47
2022-10-21T20:10:41.689Z,97783.75
2022-10-21T20:13:45.910Z,97788.06
2022-10-21T20:16:50.042Z,97790.44
2022-10-21T20:19:52.729Z,97783.94
2022-10-21T20:22:55.392Z,97790.75
2022-10-21T20:26:00.185Z,97793.47
2022-10-21T20:29:03.117Z,97799.22
2022-10-21T20:32:05.840Z,97800.47
2022-10-21T20:35:09.670Z,97807.63
2022-10-21T20:38:13.824Z,97812.56
2022-10-21T20:41:21.797Z,97815.75
2022-10-21T20:44:37.040Z,97823.09
2022-10-21T20:47:56.399Z,97819.56
2022-10-21T20:51:10.962Z,97807.44
2022-10-21T20:54:35.324Z,97804.25
2022-10-21T20:57:45.634Z,97793.53
2022-10-21T21:04:33.959Z,97814.47
2022-10-21T21:07:53.346Z,97814.94
2022-10-21T21:11:01.025Z,97818.91
2022-10-21T21:14:08.075Z,97812.41
2022-10-21T21:17:13.270Z,97816.53
2022-10-21T21:20:16.390Z,97828.16
2022-10-21T21:23:19.425Z,97839.50
2022-10-21T21:26:23.730Z,97843.47
2022-10-21T21:29:27.972Z,97855.41
2022-10-21T21:32:30.646Z,97865.94
2022-10-21T21:35:33.255Z,97881.69
2022-10-21T21:38:36.734Z,97875.81
2022-10-21T21:41:39.950Z,97883.94
2022-10-21T21:44:44.018Z,97886.75
2022-10-21T21:47:46.903Z,97892.50
2022-10-21T21:50:49.819Z,97891.22
2022-10-21T21:53:52.569Z,97890.25
2022-10-21T21:57:10.328Z,97884.34
2022-10-21T22:00:19.658Z,97895.81
2022-10-21T22:03:22.442Z,97895.34
2022-10-21T22:06:28.318Z,97877.00
2022-10-21T22:09:31.242Z,97869.03
2022-10-21T22:12:33.885Z,97872.50
2022-10-21T22:15:47.938Z,97866.44
2022-10-21T22:18:51.571Z,97862.59
2022-10-21T22:21:54.181Z,97871.00
2022-10-21T22:24:56.864Z,97879.09
2022-10-21T22:27:59.506Z,97887.03
2022-10-21T22:31:06.717Z,97886.41
2022-10-21T22:34:11.897Z,97888.13
2022-10-21T22:37:14.812Z,97892.06
2022-10-21T22:40:17.459Z,97889.00
2022-10-21T22:43:20.157Z,97887.22
2022-10-21T22:46:39.678Z,97891.84
2022-10-21T22:49:43.627Z,97891.97
2022-10-21T22:52:46.245Z,97887.97
2022-10-21T22:55:48.905Z,97907.66
2022-10-21T22:58:51.496Z,97907.34
2022-10-21T23:01:55.516Z,97914.78
2022-10-21T23:04:58.110Z,97925.88
2022-10-21T23:08:00.865Z,97921.09
2022-10-21T23:11:03.469Z,97916.44
2022-10-21T23:14:08.662Z,97918.28
2022-10-21T23:17:13.050Z,97915.09
2022-10-21T23:20:15.790Z,97939.72
2022-10-21T23:23:18.433Z,97962.41
2022-10-21T23:26:21.084Z,97967.63
2022-10-21T23:29:23.796Z,97962.13
2022-10-21T23:32:27.768Z,97969.75
2022-10-21T23:35:30.843Z,97968.97
2022-10-21T23:38:33.464Z,97966.84
2022-10-21T23:41:36.093Z,97960.38
2022-10-21T23:44:38.681Z,97956.50
2022-10-21T23:47:43.081Z,97956.59
2022-10-21T23:50:46.378Z,97965.00
2022-10-21T23:53:49.265Z,97958.50
2022-10-21T23:56:51.890Z,97958.03
2022-10-21T23:59:54.555Z,97956.91
